Hickory, North Carolina
Current Conditions -  °F | °C
As of 11:23 AM on Sunday 23 Nov 2014 (Local Time) from KHKY Reporting Station
Light Rain Light Rain  
Wind Chill: 38°   Ceiling: 900
Heat Index: 42°   Visibility: 3mi
Dew Point: 38°   Wind: 6mph
Humidity: 85%   Direction: 320°NW
Pressure: 30.16"   Gusts: NA
Location:  35.74°N, 81.33°W
Report Text: KHKY 231623Z AUTO 32005KT 3SM -RA BR OVC009 06/03 A3016 RMK AO2 P0003 T00560033
Loading
Personal Weather Stations






























Interactive Weather Map New forecast layout! Learn more

10-Day Weather Forecast

Advertisements
Track Severe Weather on mobile